Time;durP1;ratioP1;P1;durP2;ratioP2;P2;SDS_P1;SDS_P2;PMS_P1;PMS_P2;Temp;Humidity;BMP_temperature;BMP_pressure;BME280_temperature;BME280_humidity;BME280_pressure;Samples;Min_cycle;Max_cycle;Signal;HPM_P1;HPM_P2
2023/04/09 00:01:54;;;;;;;79.65;48.33;;;8.40;99.90;;;;;;4987840;28;20053;-48
2023/04/09 00:04:21;;;;;;;82.95;46.70;;;8.40;99.90;;;;;;4991993;28;20052;-45
2023/04/09 00:06:47;;;;;;;83.47;47.58;;;8.40;99.90;;;;;;4991013;28;20129;-43
2023/04/09 00:09:13;;;;;;;79.22;44.20;;;8.40;99.90;;;;;;5008025;28;20042;-47
2023/04/09 00:11:38;;;;;;;82.90;45.15;;;8.40;99.90;;;;;;5008946;28;20050;-54
2023/04/09 00:14:04;;;;;;;73.38;44.72;;;8.40;99.90;;;;;;5008439;28;20050;-54
2023/04/09 00:16:30;;;;;;;86.63;46.38;;;8.40;99.90;;;;;;5009648;28;20046;-48
2023/04/09 00:18:55;;;;;;;76.88;46.60;;;8.40;99.90;;;;;;5006832;28;20492;-53
2023/04/09 00:21:21;;;;;;;87.20;47.38;;;8.40;99.90;;;;;;5009253;28;20077;-47
2023/04/09 00:23:47;;;;;;;80.05;47.35;;;8.40;99.90;;;;;;5006616;28;20041;-45
2023/04/09 00:26:13;;;;;;;79.45;46.80;;;8.30;99.90;;;;;;4990814;28;20551;-50
2023/04/09 00:28:38;;;;;;;78.25;45.42;;;8.40;99.90;;;;;;5008554;28;20056;-51
2023/04/09 00:31:04;;;;;;;76.57;44.08;;;8.40;99.90;;;;;;4990099;28;20058;-51
2023/04/09 00:33:30;;;;;;;80.88;46.78;;;8.30;99.90;;;;;;5008145;28;20034;-49
2023/04/09 00:35:56;;;;;;;78.20;44.38;;;8.30;99.90;;;;;;5007236;28;20084;-51
2023/04/09 00:38:22;;;;;;;75.00;42.85;;;8.30;99.90;;;;;;5008863;28;20045;-46
2023/04/09 00:40:49;;;;;;;73.20;42.90;;;8.30;99.90;;;;;;5006865;28;20162;-46
2023/04/09 00:43:16;;;;;;;69.47;41.53;;;8.30;99.90;;;;;;5008897;28;20085;-49
2023/04/09 00:45:43;;;;;;;82.25;42.90;;;8.30;99.90;;;;;;5008324;28;20120;-46
2023/04/09 00:48:08;;;;;;;72.15;41.35;;;8.30;99.90;;;;;;5007020;28;20127;-58
2023/04/09 00:50:35;;;;;;;71.53;42.63;;;8.30;99.90;;;;;;4989175;28;20798;-48
2023/04/09 00:53:01;;;;;;;73.03;40.95;;;8.20;99.90;;;;;;4953469;28;20101;-54
2023/04/09 00:55:27;;;;;;;71.53;40.80;;;8.30;99.90;;;;;;4988915;28;20050;-55
2023/04/09 00:57:53;;;;;;;66.20;39.70;;;8.30;99.90;;;;;;4987058;28;20441;-45
2023/04/09 01:00:19;;;;;;;66.18;40.33;;;8.30;99.90;;;;;;4988888;28;20076;-51
2023/04/09 01:02:45;;;;;;;71.43;39.28;;;8.20;99.90;;;;;;4997047;28;20050;-55
2023/04/09 01:05:12;;;;;;;73.05;40.92;;;8.20;99.90;;;;;;4970817;28;20416;-50
2023/04/09 01:08:02;;;;;;;70.60;42.55;;;8.20;99.90;;;;;;4988134;28;20050;-53
2023/04/09 01:10:41;;;;;;;75.30;43.05;;;8.30;99.90;;;;;;4969731;28;20121;-58
2023/04/09 01:13:23;;;;;;;78.60;44.13;;;8.20;99.90;;;;;;4977022;28;20081;-52
2023/04/09 01:15:58;;;;;;;76.63;44.13;;;8.20;99.90;;;;;;4987513;28;20078;-45
2023/04/09 01:18:41;;;;;;;80.72;43.45;;;8.20;99.90;;;;;;4987836;28;20034;-45
2023/04/09 01:21:20;;;;;;;72.85;44.13;;;8.20;99.90;;;;;;4988637;28;20400;-55
2023/04/09 01:23:57;;;;;;;76.18;43.50;;;8.20;99.90;;;;;;4986616;28;20085;-59
2023/04/09 01:26:56;;;;;;;73.45;43.45;;;8.20;99.90;;;;;;4988643;28;20105;-48
2023/04/09 01:29:24;;;;;;;76.13;43.08;;;8.20;99.90;;;;;;4988534;28;20501;-50
2023/04/09 01:31:51;;;;;;;70.05;42.40;;;8.20;99.90;;;;;;4987513;28;20045;-53
2023/04/09 01:34:19;;;;;;;72.50;41.67;;;8.20;99.90;;;;;;4971198;28;20062;-51
2023/04/09 01:36:51;;;;;;;77.65;42.63;;;8.20;99.90;;;;;;4986728;28;20050;-51
2023/04/09 01:39:17;;;;;;;70.22;40.80;;;8.20;99.90;;;;;;4988337;28;20181;-50
2023/04/09 01:41:45;;;;;;;67.50;38.35;;;8.20;99.90;;;;;;4987869;28;20113;-62
2023/04/09 01:44:12;;;;;;;63.80;37.97;;;8.20;99.90;;;;;;4988136;28;20058;-50
2023/04/09 01:46:39;;;;;;;61.63;37.72;;;8.20;99.90;;;;;;4974609;28;20050;-49
2023/04/09 01:49:05;;;;;;;64.82;37.42;;;8.20;99.90;;;;;;4998500;28;20062;-55
2023/04/09 01:51:33;;;;;;;61.42;37.42;;;8.20;99.90;;;;;;5012309;28;20404;-52
2023/04/09 01:53:59;;;;;;;58.25;33.00;;;8.20;99.90;;;;;;5009979;28;20120;-47
2023/04/09 01:56:25;;;;;;;56.63;34.25;;;8.20;99.90;;;;;;5004505;28;20049;-55
2023/04/09 01:58:51;;;;;;;58.58;34.75;;;8.20;99.90;;;;;;4999096;28;20054;-44
2023/04/09 02:01:34;;;;;;;52.97;34.08;;;8.20;99.90;;;;;;5007195;28;20046;-55
2023/04/09 02:04:08;;;;;;;51.60;32.30;;;8.20;99.90;;;;;;4998528;28;20432;-54
2023/04/09 02:07:01;;;;;;;57.35;33.03;;;8.20;99.90;;;;;;4989334;28;20085;-48
2023/04/09 02:09:29;;;;;;;55.47;33.20;;;8.20;99.90;;;;;;4983515;28;20057;-55
2023/04/09 02:11:58;;;;;;;51.53;30.92;;;8.20;99.90;;;;;;5010495;28;20096;-44
2023/04/09 02:14:26;;;;;;;54.78;33.25;;;8.20;99.90;;;;;;5010966;28;20042;-55
2023/04/09 02:16:52;;;;;;;52.90;29.73;;;8.20;99.90;;;;;;5010640;28;20053;-45
2023/04/09 02:19:17;;;;;;;51.40;31.85;;;8.20;99.90;;;;;;5006538;28;20722;-58
2023/04/09 02:21:43;;;;;;;53.97;31.90;;;8.20;99.90;;;;;;5011707;28;20053;-49
2023/04/09 02:24:09;;;;;;;50.90;32.33;;;8.20;99.90;;;;;;5009540;28;20417;-55
2023/04/09 02:26:35;;;;;;;46.63;30.33;;;8.20;99.90;;;;;;4993853;28;20046;-53
2023/04/09 02:29:00;;;;;;;57.15;31.52;;;8.20;99.90;;;;;;4997336;28;20057;-48
2023/04/09 02:31:26;;;;;;;54.15;31.58;;;8.20;99.90;;;;;;5008248;28;20498;-53
2023/04/09 02:33:53;;;;;;;61.35;33.88;;;8.20;99.90;;;;;;4988918;28;20054;-44
2023/04/09 02:36:18;;;;;;;51.53;32.35;;;8.20;99.90;;;;;;5009035;28;20049;-53
2023/04/09 02:38:44;;;;;;;61.38;35.20;;;8.20;99.90;;;;;;5003926;28;20042;-56
2023/04/09 02:41:10;;;;;;;78.80;36.00;;;8.20;99.90;;;;;;5003855;28;20433;-46
2023/04/09 02:43:36;;;;;;;58.90;36.17;;;8.20;99.90;;;;;;5009966;28;20034;-48
2023/04/09 02:46:02;;;;;;;64.32;37.42;;;8.30;99.90;;;;;;5009221;28;20137;-51
2023/04/09 02:48:28;;;;;;;65.07;37.17;;;8.20;99.90;;;;;;4993137;28;20068;-54
2023/04/09 02:50:53;;;;;;;70.60;38.15;;;8.20;99.90;;;;;;5001568;28;20042;-45
2023/04/09 02:53:20;;;;;;;68.85;37.65;;;8.30;99.90;;;;;;4992743;28;20515;-46
2023/04/09 02:55:46;;;;;;;65.25;38.08;;;8.20;99.90;;;;;;4992280;28;20054;-52
2023/04/09 02:58:12;;;;;;;71.30;36.67;;;8.20;99.90;;;;;;5009025;28;20076;-52
2023/04/09 03:00:37;;;;;;;67.78;41.72;;;8.30;99.90;;;;;;5005410;28;20548;-48
2023/04/09 03:03:03;;;;;;;68.15;39.33;;;8.20;99.90;;;;;;5002782;28;20138;-46
2023/04/09 03:05:29;;;;;;;61.75;38.33;;;8.20;99.90;;;;;;5009670;28;20092;-53
2023/04/09 03:07:55;;;;;;;63.38;37.80;;;8.30;99.90;;;;;;4989009;28;20092;-58
2023/04/09 03:10:21;;;;;;;72.72;38.70;;;8.20;99.90;;;;;;4998928;28;20073;-52
2023/04/09 03:12:47;;;;;;;61.75;38.80;;;8.20;99.90;;;;;;4976006;28;20101;-45
2023/04/09 03:15:13;;;;;;;63.50;37.78;;;8.30;99.90;;;;;;4982213;28;20038;-47
2023/04/09 03:17:39;;;;;;;63.83;37.38;;;8.20;99.90;;;;;;4973223;28;20042;-52
2023/04/09 03:20:06;;;;;;;71.10;38.00;;;8.20;99.90;;;;;;4994924;28;20046;-53
2023/04/09 03:22:36;;;;;;;65.13;37.10;;;8.30;99.90;;;;;;4990222;28;20046;-50
2023/04/09 03:25:02;;;;;;;70.43;37.05;;;8.20;99.90;;;;;;4988622;28;20042;-48
2023/04/09 03:27:28;;;;;;;68.20;36.30;;;8.20;99.90;;;;;;4973452;28;20129;-48
2023/04/09 03:29:57;;;;;;;66.35;37.88;;;8.20;99.90;;;;;;4989613;28;20054;-50
2023/04/09 03:32:23;;;;;;;71.00;37.95;;;8.20;99.90;;;;;;4972355;28;20393;-50
2023/04/09 03:34:49;;;;;;;67.28;38.30;;;8.20;99.90;;;;;;4990496;28;20054;-49
2023/04/09 03:37:14;;;;;;;62.78;38.22;;;8.10;99.90;;;;;;4988661;28;20421;-54
2023/04/09 03:39:40;;;;;;;72.30;38.63;;;8.10;99.90;;;;;;4972892;28;20051;-53
2023/04/09 03:42:06;;;;;;;70.63;37.97;;;8.10;99.90;;;;;;4987894;28;20121;-57
2023/04/09 03:44:32;;;;;;;66.45;38.45;;;8.00;99.90;;;;;;4990534;28;20104;-53
2023/04/09 03:46:58;;;;;;;74.05;39.50;;;8.00;99.90;;;;;;4989109;28;20050;-53
2023/04/09 03:49:23;;;;;;;72.57;39.60;;;8.00;99.90;;;;;;5000479;28;20053;-50
2023/04/09 03:51:49;;;;;;;67.95;39.38;;;8.00;99.90;;;;;;4991611;28;20519;-52
2023/04/09 03:54:15;;;;;;;75.35;40.35;;;8.00;99.90;;;;;;5008278;28;20037;-51
2023/04/09 03:56:41;;;;;;;84.75;43.65;;;7.90;99.90;;;;;;5009765;28;20053;-55
2023/04/09 03:59:06;;;;;;;81.05;41.35;;;7.90;99.90;;;;;;4989891;28;20100;-56
2023/04/09 04:01:33;;;;;;;82.47;40.00;;;7.90;99.90;;;;;;4991719;28;20037;-44
2023/04/09 04:03:59;;;;;;;79.03;40.78;;;7.90;99.90;;;;;;5008092;28;20049;-50
2023/04/09 04:06:26;;;;;;;72.40;40.13;;;7.80;99.90;;;;;;4991462;28;20049;-51
2023/04/09 04:08:52;;;;;;;66.72;39.42;;;7.80;99.90;;;;;;5004639;28;20061;-48
2023/04/09 04:11:17;;;;;;;74.35;40.00;;;7.80;99.90;;;;;;5008318;28;20064;-48
2023/04/09 04:13:43;;;;;;;72.20;38.97;;;7.80;99.90;;;;;;5008897;28;20037;-46
2023/04/09 04:16:09;;;;;;;69.63;40.30;;;7.80;99.90;;;;;;4989681;28;20050;-54
2023/04/09 04:18:35;;;;;;;77.03;40.13;;;7.80;99.90;;;;;;5009654;28;20050;-53
2023/04/09 04:21:01;;;;;;;78.18;41.63;;;7.80;99.90;;;;;;5007845;28;20034;-56
2023/04/09 04:23:27;;;;;;;78.90;44.30;;;7.80;99.90;;;;;;5007536;28;20058;-52
2023/04/09 04:25:53;;;;;;;70.43;39.08;;;7.80;99.90;;;;;;5006295;28;20057;-53
2023/04/09 04:28:19;;;;;;;75.93;38.65;;;7.80;99.90;;;;;;4990887;28;20530;-55
2023/04/09 04:30:45;;;;;;;66.25;37.45;;;7.80;99.90;;;;;;5009193;28;20044;-52
2023/04/09 04:33:10;;;;;;;79.95;39.95;;;7.90;99.90;;;;;;5007381;28;20069;-54
2023/04/09 04:35:36;;;;;;;72.00;38.58;;;7.90;99.90;;;;;;5009465;28;20181;-46
2023/04/09 04:38:02;;;;;;;69.07;37.67;;;7.80;99.90;;;;;;5007575;28;20192;-51
2023/04/09 04:40:28;;;;;;;76.82;39.25;;;7.90;99.90;;;;;;5008690;28;20042;-53
2023/04/09 04:42:53;;;;;;;77.03;38.70;;;7.90;99.90;;;;;;4989314;28;20108;-55
2023/04/09 04:45:19;;;;;;;71.82;38.90;;;7.90;99.90;;;;;;5007095;28;20089;-49
2023/04/09 04:47:45;;;;;;;70.78;38.60;;;7.90;99.90;;;;;;5007881;28;20484;-57
2023/04/09 04:50:11;;;;;;;76.93;39.10;;;7.80;99.90;;;;;;4989822;28;20484;-55
2023/04/09 04:52:39;;;;;;;78.07;40.72;;;7.80;99.90;;;;;;4990470;28;20060;-52
2023/04/09 04:55:05;;;;;;;77.60;39.50;;;7.80;99.90;;;;;;5005763;28;20505;-58
2023/04/09 04:57:31;;;;;;;86.10;41.67;;;7.80;99.90;;;;;;5008063;28;20520;-48
2023/04/09 04:59:57;;;;;;;88.28;44.58;;;7.80;99.90;;;;;;5006940;28;20555;-51
2023/04/09 05:02:22;;;;;;;76.50;41.97;;;7.80;99.90;;;;;;5008627;28;20069;-55
2023/04/09 05:04:48;;;;;;;75.03;42.25;;;7.80;99.90;;;;;;5002354;28;20054;-52
2023/04/09 05:07:14;;;;;;;81.80;43.28;;;7.80;99.90;;;;;;5007332;28;20041;-56
2023/04/09 05:09:41;;;;;;;78.20;43.75;;;7.80;99.90;;;;;;5008071;28;20126;-45
2023/04/09 05:12:07;;;;;;;83.82;43.47;;;7.80;99.90;;;;;;4990069;28;20136;-52
2023/04/09 05:14:34;;;;;;;73.53;42.92;;;7.90;99.90;;;;;;5007950;28;20077;-55
2023/04/09 05:16:59;;;;;;;81.65;43.45;;;7.80;99.90;;;;;;5006517;28;20046;-53
2023/04/09 05:19:25;;;;;;;81.70;43.00;;;7.90;99.90;;;;;;5007539;28;20048;-56
2023/04/09 05:21:51;;;;;;;78.93;42.72;;;7.90;99.90;;;;;;5006611;28;20048;-52
2023/04/09 05:24:16;;;;;;;89.07;46.83;;;7.90;99.90;;;;;;5007847;28;20056;-51
2023/04/09 05:26:42;;;;;;;82.35;44.08;;;7.90;99.90;;;;;;5007002;28;20046;-44
2023/04/09 05:29:08;;;;;;;80.53;44.78;;;7.90;99.90;;;;;;4989971;28;20057;-49
2023/04/09 05:31:34;;;;;;;93.85;43.78;;;8.00;99.90;;;;;;4990728;28;20127;-46
2023/04/09 05:34:00;;;;;;;80.43;44.47;;;8.00;99.90;;;;;;4989273;28;20054;-51
2023/04/09 05:36:26;;;;;;;89.47;44.53;;;8.00;99.90;;;;;;5007341;28;20110;-50
2023/04/09 05:38:51;;;;;;;87.82;45.65;;;8.00;99.90;;;;;;5006809;28;20096;-52
2023/04/09 05:41:17;;;;;;;78.90;43.38;;;8.00;99.90;;;;;;4989898;28;20692;-46
2023/04/09 05:43:43;;;;;;;76.32;42.92;;;8.10;99.90;;;;;;5006636;28;20037;-50
2023/04/09 05:46:09;;;;;;;82.80;44.00;;;8.10;99.90;;;;;;5008219;28;20061;-47
2023/04/09 05:48:37;;;;;;;80.03;44.22;;;8.10;99.90;;;;;;5001534;28;20068;-50
2023/04/09 05:51:03;;;;;;;76.63;42.22;;;8.20;99.90;;;;;;4987776;28;20050;-53
2023/04/09 05:53:30;;;;;;;84.25;43.30;;;8.10;99.90;;;;;;4970585;28;20563;-47
2023/04/09 05:55:56;;;;;;;83.85;44.95;;;8.10;99.90;;;;;;4969496;28;20061;-54
2023/04/09 05:58:22;;;;;;;79.35;44.30;;;8.10;99.90;;;;;;4987591;28;20046;-54
2023/04/09 06:00:50;;;;;;;77.43;42.50;;;8.10;99.90;;;;;;4975688;28;20050;-54
2023/04/09 06:03:16;;;;;;;78.28;41.45;;;8.20;99.90;;;;;;4975570;28;20500;-59
2023/04/09 06:05:44;;;;;;;78.72;41.50;;;8.20;99.90;;;;;;4987506;28;20038;-44
2023/04/09 06:08:10;;;;;;;74.75;40.15;;;8.20;99.90;;;;;;4986595;28;20049;-50
2023/04/09 06:10:36;;;;;;;74.13;38.72;;;8.20;99.90;;;;;;4987923;28;20261;-43
2023/04/09 06:13:02;;;;;;;79.22;39.10;;;8.20;99.90;;;;;;4986724;28;20444;-49
2023/04/09 06:15:28;;;;;;;72.18;37.85;;;8.20;99.90;;;;;;4988126;28;20062;-54
2023/04/09 06:17:53;;;;;;;73.07;39.08;;;8.20;99.90;;;;;;4986273;28;20053;-51
2023/04/09 06:20:20;;;;;;;69.78;36.22;;;8.30;99.90;;;;;;4987356;28;20332;-51
2023/04/09 06:22:46;;;;;;;63.70;36.72;;;8.30;99.90;;;;;;4968740;28;20061;-46
2023/04/09 06:25:12;;;;;;;67.35;34.47;;;8.30;99.90;;;;;;4988263;28;20126;-55
2023/04/09 06:27:38;;;;;;;72.53;36.22;;;8.30;99.90;;;;;;4987262;28;20129;-48
2023/04/09 06:30:04;;;;;;;65.43;34.60;;;8.30;99.90;;;;;;4988230;28;20489;-47
2023/04/09 06:32:30;;;;;;;60.88;34.90;;;8.30;99.90;;;;;;4992513;28;20076;-44
2023/04/09 06:34:56;;;;;;;61.35;34.50;;;8.30;99.90;;;;;;4972424;28;20050;-55
2023/04/09 06:37:21;;;;;;;60.53;33.45;;;8.30;99.90;;;;;;4991489;28;20043;-54
2023/04/09 06:39:47;;;;;;;59.67;31.55;;;8.30;99.90;;;;;;4972215;28;20505;-46
2023/04/09 06:42:13;;;;;;;53.03;29.33;;;8.40;99.90;;;;;;4991923;28;20063;-47
2023/04/09 06:44:39;;;;;;;56.42;29.98;;;8.30;99.90;;;;;;4989696;28;20524;-44
2023/04/09 06:47:05;;;;;;;56.10;29.85;;;8.30;99.90;;;;;;4973214;28;20657;-49
2023/04/09 06:49:30;;;;;;;51.90;27.60;;;8.30;99.90;;;;;;4998401;28;20065;-51
2023/04/09 06:51:56;;;;;;;45.53;25.58;;;8.30;99.90;;;;;;4991949;28;20054;-49
2023/04/09 06:54:23;;;;;;;44.97;25.90;;;8.40;99.90;;;;;;5010482;28;20124;-62
2023/04/09 06:56:49;;;;;;;45.65;26.80;;;8.50;99.90;;;;;;4980990;28;20045;-56
2023/04/09 06:59:15;;;;;;;42.92;23.98;;;8.60;99.90;;;;;;4990203;28;20057;-46
2023/04/09 07:01:42;;;;;;;44.78;24.90;;;8.60;96.40;;;;;;4963775;28;20508;-48
2023/04/09 07:04:08;;;;;;;40.83;23.52;;;8.70;95.30;;;;;;4989229;28;20054;-48
2023/04/09 07:06:33;;;;;;;43.20;25.73;;;8.70;94.30;;;;;;4967534;28;20109;-55
2023/04/09 07:08:59;;;;;;;40.33;24.00;;;8.80;95.40;;;;;;4990252;28;20046;-47
2023/04/09 07:11:25;;;;;;;43.92;24.27;;;8.90;93.40;;;;;;4990249;28;20491;-57
2023/04/09 07:13:52;;;;;;;36.13;21.30;;;8.90;92.90;;;;;;4988944;28;20054;-47
2023/04/09 07:16:18;;;;;;;41.97;24.52;;;9.00;92.50;;;;;;4990872;28;20136;-53
2023/04/09 07:18:44;;;;;;;42.85;24.20;;;9.00;90.80;;;;;;4988274;28;20129;-55
2023/04/09 07:21:10;;;;;;;40.75;23.65;;;9.10;91.90;;;;;;4988705;28;20051;-55
2023/04/09 07:23:36;;;;;;;38.63;22.20;;;9.30;91.30;;;;;;4983369;28;20183;-44
2023/04/09 07:26:05;;;;;;;46.97;23.48;;;9.60;89.40;;;;;;4988966;28;20034;-44
2023/04/09 07:28:31;;;;;;;42.05;22.45;;;9.80;85.60;;;;;;4989341;28;20241;-44
2023/04/09 07:30:57;;;;;;;44.05;23.85;;;9.90;81.60;;;;;;4987727;28;20057;-44
2023/04/09 07:33:23;;;;;;;37.33;19.92;;;10.10;80.30;;;;;;4990791;28;20397;-53
2023/04/09 07:35:48;;;;;;;45.90;24.02;;;10.10;76.50;;;;;;4988570;28;20116;-47
2023/04/09 07:38:15;;;;;;;41.08;24.98;;;10.10;80.10;;;;;;4990706;28;20485;-61
2023/04/09 07:40:41;;;;;;;42.67;25.45;;;10.00;74.70;;;;;;4971104;28;20062;-44
2023/04/09 07:43:06;;;;;;;44.08;24.25;;;10.20;83.20;;;;;;4989608;28;20502;-55
2023/04/09 07:45:32;;;;;;;42.53;25.90;;;10.30;73.90;;;;;;4989301;28;20543;-45
2023/04/09 07:47:58;;;;;;;41.65;24.02;;;10.20;71.00;;;;;;4971828;28;20054;-51
2023/04/09 07:50:23;;;;;;;43.25;23.75;;;10.20;76.30;;;;;;5004506;28;20052;-52
2023/04/09 07:52:50;;;;;;;45.60;24.48;;;10.00;72.80;;;;;;5007588;28;20468;-49
2023/04/09 07:55:15;;;;;;;39.47;22.13;;;9.90;74.90;;;;;;5009304;28;20176;-59
2023/04/09 07:57:42;;;;;;;41.13;22.52;;;9.90;74.20;;;;;;5007098;28;20066;-48
2023/04/09 08:00:08;;;;;;;35.47;20.98;;;9.80;74.30;;;;;;4991081;28;20054;-58
2023/04/09 08:02:34;;;;;;;40.60;22.35;;;9.80;76.00;;;;;;4990667;28;20064;-46
2023/04/09 08:05:00;;;;;;;36.67;21.98;;;9.80;79.30;;;;;;5008692;28;20042;-49
2023/04/09 08:07:25;;;;;;;42.70;21.25;;;9.70;75.70;;;;;;5008079;28;20073;-45
2023/04/09 08:09:51;;;;;;;38.08;22.35;;;9.70;76.20;;;;;;4989232;28;20821;-49
2023/04/09 08:12:17;;;;;;;38.75;21.23;;;9.70;76.80;;;;;;4989477;28;20104;-58
2023/04/09 08:14:43;;;;;;;35.88;19.67;;;9.60;74.80;;;;;;4989028;28;20034;-55
2023/04/09 08:17:08;;;;;;;32.90;20.80;;;9.60;76.40;;;;;;4990290;28;20056;-53
2023/04/09 08:19:34;;;;;;;33.90;19.17;;;9.50;77.60;;;;;;5006144;28;20050;-54
2023/04/09 08:22:00;;;;;;;30.23;18.50;;;9.50;74.80;;;;;;5008638;28;20081;-48
2023/04/09 08:24:27;;;;;;;29.27;17.48;;;9.50;74.30;;;;;;5007984;28;20042;-44
2023/04/09 08:26:53;;;;;;;29.60;18.35;;;9.60;71.50;;;;;;5007428;28;20125;-51
2023/04/09 08:29:19;;;;;;;28.48;16.60;;;9.90;76.50;;;;;;5008362;28;20535;-45
2023/04/09 08:31:44;;;;;;;30.25;17.13;;;10.30;72.50;;;;;;4989754;28;20061;-46
2023/04/09 08:34:11;;;;;;;29.48;17.15;;;10.30;62.80;;;;;;4991525;28;20050;-62
2023/04/09 08:36:37;;;;;;;31.35;17.60;;;10.20;63.50;;;;;;4964878;28;20061;-49
2023/04/09 08:39:03;;;;;;;27.60;17.08;;;10.10;61.90;;;;;;5008149;28;20045;-52
2023/04/09 08:41:29;;;;;;;31.08;17.88;;;10.10;67.70;;;;;;5006882;28;20044;-52
2023/04/09 08:43:55;;;;;;;31.98;17.90;;;10.20;66.90;;;;;;5007959;28;20087;-52
2023/04/09 08:46:22;;;;;;;31.77;17.92;;;10.30;63.20;;;;;;5008559;28;20053;-62
2023/04/09 08:48:51;;;;;;;32.53;19.67;;;10.30;63.20;;;;;;5005785;28;20086;-49
2023/04/09 08:51:19;;;;;;;33.38;20.10;;;10.30;63.60;;;;;;5007637;28;20084;-48
2023/04/09 08:53:49;;;;;;;31.17;20.45;;;10.40;66.00;;;;;;4991497;28;20406;-54
2023/04/09 08:56:15;;;;;;;37.08;21.25;;;10.50;66.50;;;;;;4991350;28;20059;-48
2023/04/09 08:58:45;;;;;;;35.13;20.85;;;11.00;71.50;;;;;;5006930;28;20064;-53
2023/04/09 09:01:18;;;;;;;;;;;11.20;63.70;;;;;;5008625;28;20400;-50
2023/04/09 09:03:56;;;;;;;38.13;20.10;;;11.10;58.10;;;;;;5008381;28;19952;-52
2023/04/09 09:06:31;;;;;;;33.63;18.60;;;11.00;58.10;;;;;;5007042;28;20058;-51
2023/04/09 09:09:13;;;;;;;35.42;21.85;;;10.90;59.70;;;;;;4989971;28;20587;-55
2023/04/09 09:11:40;;;;;;;34.10;18.48;;;11.10;64.00;;;;;;5007081;28;20524;-47
2023/04/09 09:14:06;;;;;;;38.58;22.65;;;11.30;58.90;;;;;;5007848;28;20413;-51
2023/04/09 09:16:34;;;;;;;34.90;21.27;;;11.20;59.90;;;;;;5007711;28;20045;-53
2023/04/09 09:19:01;;;;;;;37.40;19.25;;;11.30;58.40;;;;;;5006817;28;20045;-62
2023/04/09 09:21:28;;;;;;;38.55;22.15;;;11.40;59.40;;;;;;5008562;28;20038;-54
2023/04/09 09:23:55;;;;;;;37.30;22.13;;;11.60;56.50;;;;;;5006028;28;20128;-58
2023/04/09 09:26:23;;;;;;;44.35;23.95;;;11.50;57.00;;;;;;5006884;28;20046;-49
2023/04/09 09:28:50;;;;;;;34.15;21.85;;;11.60;55.90;;;;;;4988584;28;20443;-47
2023/04/09 09:31:18;;;;;;;35.03;21.83;;;11.50;55.20;;;;;;4990455;28;20038;-48
2023/04/09 09:33:45;;;;;;;36.53;20.73;;;11.60;59.60;;;;;;5007054;28;20473;-51
2023/04/09 09:36:12;;;;;;;38.25;22.25;;;11.70;56.30;;;;;;5005799;28;20343;-47
2023/04/09 09:38:55;;;;;;;40.53;20.63;;;11.70;60.40;;;;;;5008183;28;20054;-49
2023/04/09 09:41:23;;;;;;;32.53;20.30;;;11.80;56.90;;;;;;5005530;28;20052;-51
2023/04/09 09:43:49;;;;;;;33.60;20.50;;;11.70;53.00;;;;;;5007810;28;20088;-52
2023/04/09 09:46:15;;;;;;;34.42;19.90;;;11.80;54.60;;;;;;5006820;28;20045;-44
2023/04/09 09:48:41;;;;;;;33.28;20.90;;;11.90;54.60;;;;;;5006706;28;20133;-51
2023/04/09 09:51:12;;;;;;;30.20;19.92;;;12.10;55.10;;;;;;4988078;28;20078;-46
2023/04/09 09:53:42;;;;;;;34.53;20.33;;;12.30;53.70;;;;;;4986819;28;20460;-52
2023/04/09 09:56:13;;;;;;;30.35;19.90;;;12.70;50.70;;;;;;4988200;28;20073;-59
2023/04/09 09:58:55;;;;;;;27.48;19.88;;;12.50;46.70;;;;;;4986745;28;20068;-48
2023/04/09 10:01:25;;;;;;;32.90;19.95;;;12.30;48.50;;;;;;4975853;28;20489;-51
2023/04/09 10:03:52;;;;;;;30.65;19.67;;;12.20;48.40;;;;;;4987841;28;20034;-53
2023/04/09 10:06:18;;;;;;;29.77;19.88;;;12.20;54.80;;;;;;4990713;28;20050;-49
2023/04/09 10:08:47;;;;;;;28.90;18.98;;;12.40;52.50;;;;;;4974947;28;20050;-50
2023/04/09 10:11:13;;;;;;;30.02;17.80;;;12.50;54.20;;;;;;4990854;28;20096;-55
2023/04/09 10:13:49;;;;;;;29.33;18.10;;;12.80;49.40;;;;;;4992435;28;20481;-55
2023/04/09 10:16:16;;;;;;;32.08;19.17;;;12.50;45.50;;;;;;4972526;28;20041;-54
2023/04/09 10:18:42;;;;;;;34.65;19.70;;;12.40;45.30;;;;;;4974606;28;20082;-50
2023/04/09 10:21:37;;;;;;;32.60;21.20;;;12.40;52.70;;;;;;4973416;28;20097;-56
2023/04/09 10:24:06;;;;;;;27.05;17.02;;;12.80;53.50;;;;;;4975256;28;20100;-53
2023/04/09 10:26:34;;;;;;;28.88;17.30;;;12.90;45.90;;;;;;4991639;28;20524;-56
2023/04/09 10:29:07;;;;;;;29.50;18.75;;;12.90;47.40;;;;;;4989921;28;20046;-56
2023/04/09 10:31:52;;;;;;;29.40;18.83;;;12.80;46.30;;;;;;4991860;28;20166;-55
2023/04/09 10:34:22;;;;;;;28.10;18.73;;;12.70;43.50;;;;;;4991623;28;20409;-51
2023/04/09 10:36:58;;;;;;;29.10;17.75;;;12.90;46.30;;;;;;4989662;28;20077;-55
2023/04/09 10:39:31;;;;;;;26.55;17.95;;;13.00;40.80;;;;;;4974236;28;20050;-51
2023/04/09 10:42:06;;;;;;;24.67;17.80;;;13.20;46.90;;;;;;4989520;28;20131;-55
2023/04/09 10:44:34;;;;;;;26.23;18.02;;;13.20;40.70;;;;;;4991808;28;20412;-53
2023/04/09 10:47:02;;;;;;;26.40;18.42;;;13.20;42.80;;;;;;4972682;28;20058;-52
2023/04/09 10:49:43;;;;;;;26.60;18.98;;;13.10;40.40;;;;;;4997334;28;20520;-55
2023/04/09 10:52:12;;;;;;;28.33;18.98;;;13.10;41.10;;;;;;4985539;28;20042;-49
2023/04/09 10:54:44;;;;;;;24.55;15.95;;;13.40;45.20;;;;;;5009496;28;20050;-54
2023/04/09 10:57:12;;;;;;;21.45;15.90;;;13.40;38.30;;;;;;4987918;28;20096;-59
2023/04/09 10:59:43;;;;;;;24.38;16.65;;;13.40;37.10;;;;;;5009526;28;20389;-49
2023/04/09 11:02:31;;;;;;;24.80;17.05;;;13.60;40.30;;;;;;5003539;28;20157;-49
2023/04/09 11:05:20;;;;;;;24.30;15.80;;;13.90;36.70;;;;;;5010529;28;20054;-55
2023/04/09 11:07:54;;;;;;;25.75;17.42;;;14.20;33.40;;;;;;4999527;28;20054;-58
2023/04/09 11:10:20;;;;;;;24.02;16.77;;;14.30;37.30;;;;;;5007415;28;20488;-56
2023/04/09 11:12:47;;;;;;;24.77;15.55;;;14.50;34.70;;;;;;5010054;28;20606;-52
2023/04/09 11:15:18;;;;;;;24.20;16.65;;;14.30;30.10;;;;;;4992527;28;20065;-54
2023/04/09 11:17:45;;;;;;;28.17;15.88;;;14.10;31.20;;;;;;5004631;28;20129;-54
2023/04/09 11:20:12;;;;;;;23.55;17.05;;;14.00;30.00;;;;;;4998331;28;20057;-49
2023/04/09 11:22:38;;;;;;;27.60;16.88;;;13.70;30.70;;;;;;5009027;28;20496;-55
2023/04/09 11:25:04;;;;;;;25.00;17.33;;;13.60;33.60;;;;;;5008469;28;20053;-57
2023/04/09 11:27:30;;;;;;;23.23;15.75;;;13.60;33.20;;;;;;5010183;28;20061;-56
2023/04/09 11:29:55;;;;;;;24.90;17.13;;;13.70;31.80;;;;;;4980388;28;20049;-51
2023/04/09 11:32:21;;;;;;;24.25;16.20;;;13.70;33.00;;;;;;4998298;28;20121;-55
2023/04/09 11:34:47;;;;;;;24.70;18.10;;;13.60;33.60;;;;;;5006545;28;20038;-48
2023/04/09 11:37:16;;;;;;;25.20;17.88;;;13.50;35.80;;;;;;5008857;28;20050;-52
2023/04/09 11:39:45;;;;;;;22.73;16.20;;;13.60;33.80;;;;;;4984526;28;20046;-60
2023/04/09 11:42:14;;;;;;;22.70;16.52;;;13.80;38.10;;;;;;5008250;28;20076;-55
2023/04/09 11:44:40;;;;;;;22.55;15.70;;;14.10;36.60;;;;;;4992356;28;20108;-58
2023/04/09 11:47:08;;;;;;;23.08;16.25;;;14.30;32.80;;;;;;5008067;28;20038;-54
2023/04/09 11:49:34;;;;;;;22.67;16.35;;;14.20;26.90;;;;;;5002117;28;20436;-51
2023/04/09 11:52:02;;;;;;;23.63;17.23;;;14.10;30.00;;;;;;5008743;28;20038;-50
2023/04/09 11:54:35;;;;;;;27.30;18.00;;;14.00;29.80;;;;;;5007575;28;20506;-53
2023/04/09 11:57:04;;;;;;;25.67;17.33;;;14.00;29.90;;;;;;4995849;28;20368;-60
2023/04/09 11:59:30;;;;;;;25.35;17.33;;;14.00;33.50;;;;;;5005350;28;20491;-57
2023/04/09 12:02:00;;;;;;;23.45;17.25;;;14.10;39.70;;;;;;4983161;28;20077;-60
2023/04/09 12:04:25;;;;;;;;;;;14.30;36.70;;;;;;5008476;28;20046;-56
2023/04/09 12:06:57;;;;;;;20.27;14.27;;;14.40;35.60;;;;;;5009517;28;19928;-54
2023/04/09 12:09:23;;;;;;;23.10;15.68;;;14.50;29.40;;;;;;5008731;28;20073;-52
2023/04/09 12:11:49;;;;;;;22.17;15.90;;;14.50;26.40;;;;;;5001910;28;20153;-49
2023/04/09 12:14:16;;;;;;;24.23;16.17;;;14.50;27.20;;;;;;5007725;28;20610;-47
2023/04/09 12:16:45;;;;;;;23.52;17.33;;;14.50;28.30;;;;;;5008095;28;20042;-52
2023/04/09 12:19:12;;;;;;;23.08;17.17;;;14.60;28.60;;;;;;5009376;28;20069;-54
2023/04/09 12:21:53;;;;;;;23.48;15.82;;;14.70;30.40;;;;;;4985230;28;20058;-52
2023/04/09 12:24:21;;;;;;;21.17;15.38;;;14.90;28.10;;;;;;5007446;28;20121;-52
2023/04/09 12:26:47;;;;;;;18.60;14.07;;;14.70;24.80;;;;;;5000835;28;20509;-52
2023/04/09 12:29:17;;;;;;;20.70;13.27;;;14.50;24.70;;;;;;5001567;28;20074;-56
2023/04/09 12:31:44;;;;;;;21.92;15.35;;;14.60;30.90;;;;;;5000289;28;20125;-54
2023/04/09 12:34:10;;;;;;;22.70;14.75;;;14.70;24.10;;;;;;4982225;28;20480;-57
2023/04/09 12:36:42;;;;;;;22.17;14.85;;;14.70;24.70;;;;;;5009125;28;20048;-57